Time;durP1;ratioP1;P1;durP2;ratioP2;P2;SDS_P1;SDS_P2;PMS_P1;PMS_P2;Temp;Humidity;BMP_temperature;BMP_pressure;BME280_temperature;BME280_humidity;BME280_pressure;Samples;Min_cycle;Max_cycle;Signal;HPM_P1;HPM_P2
2022/12/13 00:01:27;;;;;;;;;;;23.00;27.50;;;;;;5088727;28;20007;-71
2022/12/13 00:03:53;;;;;;;;;;;23.10;27.40;;;;;;5088401;28;19920;-74
2022/12/13 00:06:18;;;;;;;;;;;23.20;27.30;;;;;;5088940;28;19921;-73
2022/12/13 00:08:44;;;;;;;;;;;23.30;27.20;;;;;;5089738;28;20369;-73
2022/12/13 00:11:11;;;;;;;;;;;23.40;27.20;;;;;;5088254;28;20328;-73
2022/12/13 00:13:37;;;;;;;;;;;23.40;27.10;;;;;;5088498;28;19971;-70
2022/12/13 00:16:04;;;;;;;;;;;23.50;27.10;;;;;;5089570;28;19964;-73
2022/12/13 00:18:30;;;;;;;;;;;23.40;27.00;;;;;;5088381;28;19927;-74
2022/12/13 00:20:56;;;;;;;;;;;23.40;27.10;;;;;;5089430;28;20372;-74
2022/12/13 00:23:22;;;;;;;;;;;23.40;27.10;;;;;;5087957;28;19920;-73
2022/12/13 00:25:47;;;;;;;;;;;23.40;27.10;;;;;;5088303;28;19929;-73
2022/12/13 00:28:13;;;;;;;;;;;23.40;27.10;;;;;;5089220;28;19920;-73
2022/12/13 00:30:39;;;;;;;;;;;23.40;27.10;;;;;;5087845;28;20065;-71
2022/12/13 00:33:05;;;;;;;;;;;23.40;27.10;;;;;;5093829;28;19956;-74
2022/12/13 00:35:31;;;;;;;;;;;23.40;27.10;;;;;;5067635;28;19935;-73
2022/12/13 00:37:57;;;;;;;;;;;23.40;27.10;;;;;;5067820;28;19920;-73
2022/12/13 00:40:22;;;;;;;;;;;23.30;27.10;;;;;;5068797;28;20308;-73
2022/12/13 00:42:48;;;;;;;;;;;23.30;27.10;;;;;;5068569;28;19921;-74
2022/12/13 00:45:13;;;;;;;;;;;23.30;27.10;;;;;;5067427;28;19966;-73
2022/12/13 00:47:39;;;;;;;;;;;23.20;27.10;;;;;;5067209;28;19928;-73
2022/12/13 00:50:05;;;;;;;;;;;23.10;27.20;;;;;;5066934;28;19925;-73
2022/12/13 00:52:32;;;;;;;;;;;23.20;27.20;;;;;;5068695;28;20361;-73
2022/12/13 00:54:57;;;;;;;;;;;23.10;27.20;;;;;;5067378;28;20342;-70
2022/12/13 00:57:23;;;;;;;;;;;23.00;27.20;;;;;;5077895;28;19960;-73
2022/12/13 00:59:49;;;;;;;;;;;23.00;27.30;;;;;;5087296;28;20010;-72
2022/12/13 01:02:15;;;;;;;;;;;22.90;27.30;;;;;;5078191;28;20011;-73
2022/12/13 01:04:40;;;;;;;;;;;22.90;27.40;;;;;;5073622;28;19973;-74
2022/12/13 01:07:06;;;;;;;;;;;22.90;27.40;;;;;;5075312;28;19924;-73
2022/12/13 01:09:32;;;;;;;;;;;22.80;27.30;;;;;;5073877;28;19982;-73
2022/12/13 01:11:59;;;;;;;;;;;22.80;27.30;;;;;;5073703;28;19920;-70
2022/12/13 01:14:24;;;;;;;;;;;22.80;27.30;;;;;;5074848;28;19928;-71
2022/12/13 01:16:50;;;;;;;;;;;22.80;27.40;;;;;;5074867;28;20284;-74
2022/12/13 01:19:16;;;;;;;;;;;22.80;27.40;;;;;;5073446;28;20399;-71
2022/12/13 01:21:41;;;;;;;;;;;22.70;27.30;;;;;;5073506;28;20014;-73
2022/12/13 01:24:09;;;;;;;;;;;22.70;27.30;;;;;;5073381;28;19928;-73
2022/12/13 01:26:35;;;;;;;;;;;22.70;27.30;;;;;;5073775;28;19927;-72
2022/12/13 01:29:00;;;;;;;;;;;22.70;27.30;;;;;;5073345;28;20380;-74
2022/12/13 01:31:26;;;;;;;;;;;22.70;27.30;;;;;;5074503;28;19924;-73
2022/12/13 01:33:51;;;;;;;;;;;22.70;27.30;;;;;;5073227;28;19926;-72
2022/12/13 01:36:19;;;;;;;;;;;22.70;27.30;;;;;;5073021;28;19920;-71
2022/12/13 01:38:44;;;;;;;;;;;22.70;27.30;;;;;;5074676;28;19920;-74
2022/12/13 01:41:15;;;;;;;;;;;22.70;27.30;;;;;;5074483;28;20334;-73
2022/12/13 01:46:21;;;;;;;;;;;22.60;27.40;;;;;;5089881;28;19912;-72
2022/12/13 01:48:57;;;;;;;;;;;22.60;27.40;;;;;;5088779;28;19958;-74
2022/12/13 01:51:26;;;;;;;;;;;22.60;27.40;;;;;;5088694;28;20395;-71
2022/12/13 01:53:52;;;;;;;;;;;22.60;27.30;;;;;;5088831;28;19926;-73
2022/12/13 01:56:20;;;;;;;;;;;22.60;27.30;;;;;;5089623;28;19920;-73
2022/12/13 01:58:47;;;;;;;;;;;22.70;27.30;;;;;;5088378;28;19921;-71
2022/12/13 02:01:12;;;;;;;;;;;22.70;27.30;;;;;;5088232;28;19931;-72
2022/12/13 02:03:38;;;;;;;;;;;22.70;27.30;;;;;;5089592;28;19924;-74
2022/12/13 02:06:06;;;;;;;;;;;22.70;27.30;;;;;;5088152;28;19924;-73
2022/12/13 02:08:32;;;;;;;;;;;22.80;27.30;;;;;;5089506;28;20394;-73
2022/12/13 02:10:58;;;;;;;;;;;22.70;27.20;;;;;;5088433;28;19927;-71
2022/12/13 02:13:24;;;;;;;;;;;22.70;27.20;;;;;;5088442;28;20295;-73
2022/12/13 02:16:12;;;;;;;;;;;22.70;27.20;;;;;;5088409;28;20423;-74
2022/12/13 02:18:45;;;;;;;;;;;22.70;27.20;;;;;;5104802;28;20293;-73
2022/12/13 02:24:12;;;;;;;;;;;22.60;27.30;;;;;;5109542;27;19912;-72
2022/12/13 02:29:38;;;;;;;;;;;22.50;27.20;;;;;;5089965;28;19919;-72
2022/12/13 02:34:52;;;;;;;;;;;22.50;27.30;;;;;;5090049;28;19934;-73
2022/12/13 02:37:23;;;;;;;;;;;22.60;27.30;;;;;;5088476;28;20407;-73
2022/12/13 02:39:59;;;;;;;;;;;22.60;27.30;;;;;;5088592;28;20014;-73
2022/12/13 02:42:26;;;;;;;;;;;22.50;27.20;;;;;;5088443;28;19920;-72
2022/12/13 02:45:03;;;;;;;;;;;22.50;27.30;;;;;;5088455;28;19920;-73
2022/12/13 02:47:29;;;;;;;;;;;22.50;27.40;;;;;;5088620;28;19936;-73
2022/12/13 02:49:57;;;;;;;;;;;22.50;27.40;;;;;;5088429;28;20352;-74
2022/12/13 02:52:24;;;;;;;;;;;22.50;27.30;;;;;;5089685;28;20350;-72
2022/12/13 02:54:49;;;;;;;;;;;22.40;27.20;;;;;;5089521;28;19921;-73
2022/12/13 02:57:34;;;;;;;;;;;22.40;27.20;;;;;;5088191;28;19920;-71
2022/12/13 03:00:02;;;;;;;;;;;22.40;27.30;;;;;;5088767;28;19971;-73
2022/12/13 03:02:47;;;;;;;;;;;22.40;27.30;;;;;;5088094;28;20239;-74
2022/12/13 03:08:15;;;;;;;;;;;22.40;27.20;;;;;;5127612;27;1861765;-74
2022/12/13 03:10:45;;;;;;;;;;;22.40;27.20;;;;;;5174494;27;20274;-71
2022/12/13 03:13:48;;;;;;;;;;;22.40;27.30;;;;;;5174609;27;20014;-73
2022/12/13 03:18:42;;;;;;;;;;;22.40;27.20;;;;;;5127772;27;1858736;-74
2022/12/13 03:21:08;;;;;;;;;;;22.40;27.20;;;;;;5174609;27;19919;-73
2022/12/13 03:23:34;;;;;;;;;;;22.40;27.20;;;;;;5174631;27;19926;-74
2022/12/13 03:26:05;;;;;;;;;;;22.40;27.20;;;;;;5174604;27;20362;-73
2022/12/13 03:28:31;;;;;;;;;;;22.40;27.20;;;;;;5174409;27;19926;-73
2022/12/13 03:30:56;;;;;;;;;;;22.40;27.20;;;;;;5174533;27;19919;-71
2022/12/13 03:33:22;;;;;;;;;;;22.50;27.20;;;;;;5174521;27;20281;-73
2022/12/13 03:35:48;;;;;;;;;;;22.50;27.20;;;;;;5174007;27;19925;-73
2022/12/13 03:38:14;;;;;;;;;;;22.50;27.20;;;;;;5174047;27;19923;-73
2022/12/13 03:40:40;;;;;;;;;;;22.50;27.20;;;;;;5193018;27;20168;-73
2022/12/13 03:43:05;;;;;;;;;;;22.50;27.10;;;;;;5174116;27;19928;-73
2022/12/13 03:45:31;;;;;;;;;;;22.60;27.10;;;;;;5174247;27;19972;-73
2022/12/13 03:47:56;;;;;;;;;;;22.50;27.10;;;;;;5192933;27;19922;-73
2022/12/13 03:50:22;;;;;;;;;;;22.50;27.10;;;;;;5173949;27;19938;-73
2022/12/13 03:52:50;;;;;;;;;;;22.50;27.10;;;;;;5192577;27;19945;-73
2022/12/13 03:55:15;;;;;;;;;;;22.50;27.10;;;;;;5173826;27;20245;-73
2022/12/13 03:57:41;;;;;;;;;;;22.50;27.00;;;;;;5173786;27;19927;-73
2022/12/13 04:00:07;;;;;;;;;;;22.50;27.10;;;;;;5192554;27;19919;-73
2022/12/13 04:02:32;;;;;;;;;;;22.50;27.10;;;;;;5174032;27;19919;-73
2022/12/13 04:04:58;;;;;;;;;;;22.40;27.10;;;;;;5173545;27;20381;-71
2022/12/13 04:07:23;;;;;;;;;;;22.40;27.10;;;;;;5173514;27;19918;-74
2022/12/13 04:09:49;;;;;;;;;;;22.40;27.10;;;;;;5173825;27;19971;-71
2022/12/13 04:15:01;;;;;;;;;;;22.40;27.10;;;;;;5191928;27;19976;-73
2022/12/13 04:17:26;;;;;;;;;;;22.40;27.10;;;;;;5173285;27;19972;-72
2022/12/13 04:19:52;;;;;;;;;;;22.40;27.10;;;;;;5173430;27;20413;-71
2022/12/13 04:22:17;;;;;;;;;;;22.40;27.10;;;;;;5173303;27;20001;-73
2022/12/13 04:24:43;;;;;;;;;;;22.40;27.10;;;;;;5192221;27;19947;-73
2022/12/13 04:27:08;;;;;;;;;;;22.40;27.10;;;;;;5173148;27;19925;-71
2022/12/13 04:29:34;;;;;;;;;;;22.30;27.10;;;;;;5162217;27;19943;-74
2022/12/13 04:31:59;;;;;;;;;;;22.40;27.10;;;;;;5159066;27;20406;-73
2022/12/13 04:34:25;;;;;;;;;;;22.40;27.10;;;;;;5177898;27;19922;-73
2022/12/13 04:36:50;;;;;;;;;;;22.40;27.00;;;;;;5158862;27;19922;-73
2022/12/13 04:39:16;;;;;;;;;;;22.40;27.00;;;;;;5159111;27;19926;-73
2022/12/13 04:41:41;;;;;;;;;;;22.40;27.00;;;;;;5158866;27;19926;-74
2022/12/13 04:44:08;;;;;;;;;;;22.40;27.00;;;;;;5177651;27;19923;-72
2022/12/13 04:46:34;;;;;;;;;;;22.40;27.00;;;;;;5159130;27;19919;-72
2022/12/13 04:49:00;;;;;;;;;;;22.40;27.00;;;;;;5177424;27;20017;-71
2022/12/13 04:51:26;;;;;;;;;;;22.40;27.00;;;;;;5158890;27;19923;-71
2022/12/13 04:53:51;;;;;;;;;;;22.40;27.00;;;;;;5158758;27;19919;-74
2022/12/13 04:56:17;;;;;;;;;;;22.40;26.90;;;;;;5157494;27;20043;-72
2022/12/13 04:58:43;;;;;;;;;;;22.40;26.90;;;;;;5156422;27;19923;-73
2022/12/13 05:01:09;;;;;;;;;;;22.40;26.90;;;;;;5156345;27;19919;-73
2022/12/13 05:03:36;;;;;;;;;;;22.40;26.90;;;;;;5137819;27;19930;-73
2022/12/13 05:06:10;;;;;;;;;;;22.40;26.90;;;;;;5156291;27;19926;-74
2022/12/13 05:08:36;;;;;;;;;;;22.40;26.90;;;;;;5137581;27;19919;-71
2022/12/13 05:11:02;;;;;;;;;;;22.40;26.80;;;;;;5137956;27;20336;-73
2022/12/13 05:13:28;;;;;;;;;;;22.50;26.80;;;;;;5137770;27;19919;-71
2022/12/13 05:15:55;;;;;;;;;;;22.50;26.80;;;;;;5137902;27;19972;-73
2022/12/13 05:18:20;;;;;;;;;;;22.50;26.70;;;;;;5155611;27;19923;-72
2022/12/13 05:20:46;;;;;;;;;;;22.60;26.70;;;;;;5137728;27;19919;-72
2022/12/13 05:23:11;;;;;;;;;;;22.60;26.70;;;;;;5137856;27;20394;-73
2022/12/13 05:25:37;;;;;;;;;;;22.70;26.60;;;;;;5137425;27;19919;-71
2022/12/13 05:28:02;;;;;;;;;;;22.70;26.50;;;;;;5155821;27;19942;-71
2022/12/13 05:30:28;;;;;;;;;;;22.80;26.50;;;;;;5137321;27;20389;-74
2022/12/13 05:32:53;;;;;;;;;;;22.80;26.40;;;;;;5137192;27;19926;-71
2022/12/13 05:35:19;;;;;;;;;;;22.90;27.00;;;;;;5137244;27;19926;-73
2022/12/13 05:37:45;;;;;;;;;;;22.90;26.40;;;;;;5155498;27;19927;-73
2022/12/13 05:40:10;;;;;;;;;;;22.80;26.40;;;;;;5136086;27;20017;-73
2022/12/13 05:42:37;;;;;;;;;;;22.80;26.40;;;;;;5155543;27;19942;-74
2022/12/13 05:45:04;;;;;;;;;;;22.80;26.40;;;;;;5137306;27;20347;-72
2022/12/13 05:47:30;;;;;;;;;;;22.70;26.40;;;;;;5137318;27;19927;-73
2022/12/13 05:49:55;;;;;;;;;;;22.80;26.40;;;;;;5155566;27;19923;-74
2022/12/13 05:52:21;;;;;;;;;;;22.70;26.40;;;;;;5155426;27;19926;-73
2022/12/13 05:54:47;;;;;;;;;;;22.70;26.40;;;;;;5155299;27;19919;-71
2022/12/13 05:57:14;;;;;;;;;;;22.70;26.40;;;;;;5146000;27;19961;-72
2022/12/13 05:59:39;;;;;;;;;;;22.60;26.40;;;;;;5157384;27;19918;-73
2022/12/13 06:02:05;;;;;;;;;;;22.60;26.40;;;;;;5157664;27;19930;-72
2022/12/13 06:04:30;;;;;;;;;;;22.60;26.40;;;;;;5176087;27;19919;-71
2022/12/13 06:06:56;;;;;;;;;;;22.60;26.40;;;;;;5175933;27;20327;-74
2022/12/13 06:09:21;;;;;;;;;;;22.50;26.40;;;;;;5157219;27;19933;-73
2022/12/13 06:11:47;;;;;;;;;;;22.50;26.40;;;;;;5157252;27;19918;-73
2022/12/13 06:14:14;;;;;;;;;;;22.50;26.40;;;;;;5175971;27;19919;-73
2022/12/13 06:16:39;;;;;;;;;;;22.50;26.40;;;;;;5157364;27;20055;-71
2022/12/13 06:19:05;;;;;;;;;;;22.50;26.40;;;;;;5156951;27;20005;-73
2022/12/13 06:21:31;;;;;;;;;;;22.50;26.40;;;;;;5175762;27;19945;-71
2022/12/13 06:23:57;;;;;;;;;;;22.50;26.40;;;;;;5157243;27;19925;-73
2022/12/13 06:26:22;;;;;;;;;;;22.60;26.40;;;;;;5157255;27;19918;-73
2022/12/13 06:28:48;;;;;;;;;;;22.60;26.30;;;;;;5157205;27;19919;-73
2022/12/13 06:31:13;;;;;;;;;;;22.50;26.30;;;;;;5156858;27;19929;-71
2022/12/13 06:33:39;;;;;;;;;;;22.60;26.30;;;;;;5175572;27;19987;-73
2022/12/13 06:36:04;;;;;;;;;;;22.60;26.30;;;;;;5157071;27;20430;-74
2022/12/13 06:38:30;;;;;;;;;;;22.60;26.30;;;;;;5153330;27;19922;-73
2022/12/13 06:41:05;;;;;;;;;;;22.60;26.30;;;;;;5154292;27;20357;-74
2022/12/13 06:43:30;;;;;;;;;;;22.60;26.20;;;;;;5157067;27;19919;-75
2022/12/13 06:45:56;;;;;;;;;;;22.70;26.20;;;;;;5133072;27;20010;-73
2022/12/13 06:48:21;;;;;;;;;;;22.70;26.10;;;;;;5132758;27;19966;-74
2022/12/13 06:50:47;;;;;;;;;;;22.70;26.10;;;;;;5131649;27;20009;-71
2022/12/13 06:53:12;;;;;;;;;;;22.80;26.10;;;;;;5158794;27;19922;-71
2022/12/13 06:55:38;;;;;;;;;;;22.50;26.00;;;;;;5141645;27;19946;-63
2022/12/13 06:58:03;;;;;;;;;;;22.30;26.20;;;;;;5137847;27;20306;-72
2022/12/13 07:00:29;;;;;;;;;;;22.00;26.30;;;;;;5136385;27;19926;-63
2022/12/13 07:02:55;;;;;;;;;;;21.90;26.50;;;;;;5138526;27;19923;-72
2022/12/13 07:05:21;;;;;;;;;;;21.70;26.60;;;;;;5158305;27;19919;-72
2022/12/13 07:07:47;;;;;;;;;;;21.60;26.80;;;;;;5136972;27;19919;-72
2022/12/13 07:10:12;;;;;;;;;;;21.60;26.90;;;;;;5132105;27;19919;-72
2022/12/13 07:12:38;;;;;;;;;;;21.60;26.90;;;;;;5129674;27;19922;-72
2022/12/13 07:15:04;;;;;;;;;;;21.60;26.90;;;;;;5129813;27;19954;-73
2022/12/13 07:17:30;;;;;;;;;;;21.70;27.00;;;;;;5149618;27;20435;-71
2022/12/13 07:19:55;;;;;;;;;;;22.10;27.00;;;;;;5132743;27;20352;-60
2022/12/13 07:22:21;;;;;;;;;;;22.40;26.50;;;;;;5130579;27;19926;-70
2022/12/13 07:24:46;;;;;;;;;;;22.60;26.30;;;;;;5125688;27;19927;-60
2022/12/13 07:27:12;;;;;;;;;;;22.60;26.30;;;;;;5123609;27;19999;-70
2022/12/13 07:29:37;;;;;;;;;;;22.60;26.50;;;;;;5122546;27;19927;-71
2022/12/13 07:32:03;;;;;;;;;;;22.50;26.60;;;;;;5112197;27;19919;-76
2022/12/13 07:34:29;;;;;;;;;;;22.50;26.80;;;;;;5127439;27;19927;-72
2022/12/13 07:36:54;;;;;;;;;;;22.60;26.70;;;;;;5124748;27;20017;-76
2022/12/13 07:39:22;;;;;;;;;;;22.80;26.60;;;;;;5131701;27;19984;-76
2022/12/13 07:41:47;;;;;;;;;;;23.10;26.40;;;;;;5137515;27;19926;-75
2022/12/13 07:44:13;;;;;;;;;;;23.30;26.20;;;;;;5149647;27;19923;-75
2022/12/13 07:46:38;;;;;;;;;;;23.40;26.20;;;;;;5132457;27;19918;-75
2022/12/13 07:49:04;;;;;;;;;;;23.40;26.10;;;;;;5132487;27;20290;-66
2022/12/13 07:51:32;;;;;;;;;;;23.40;26.10;;;;;;5128943;27;19919;-75
2022/12/13 07:53:57;;;;;;;;;;;23.20;26.10;;;;;;5133165;27;20583;-74
2022/12/13 07:56:23;;;;;;;;;;;23.00;26.20;;;;;;5134208;27;19981;-74
2022/12/13 07:58:48;;;;;;;;;;;22.80;26.50;;;;;;5127275;27;19980;-71
2022/12/13 08:01:14;;;;;;;;;;;22.60;26.60;;;;;;5129946;27;19923;-71
2022/12/13 08:03:39;;;;;;;;;;;22.50;26.80;;;;;;5147522;27;20442;-74
2022/12/13 08:06:06;;;;;;;;;;;22.40;26.90;;;;;;5133518;27;20002;-75
2022/12/13 08:08:32;;;;;;;;;;;22.20;27.10;;;;;;5153580;27;19923;-71
2022/12/13 08:11:02;;;;;;;;;;;22.20;27.70;;;;;;5137916;27;19983;-76
2022/12/13 08:13:28;;;;;;;;;;;22.10;27.10;;;;;;5150585;27;20013;-76
2022/12/13 08:15:58;;;;;;;;;;;22.30;27.30;;;;;;5132327;27;20438;-77
2022/12/13 08:18:23;;;;;;;;;;;22.50;27.20;;;;;;5137435;27;19937;-69
2022/12/13 08:20:49;;;;;;;;;;;22.90;27.00;;;;;;5151768;27;20336;-71
2022/12/13 08:23:14;;;;;;;;;;;23.40;26.80;;;;;;5141309;27;19919;-73
2022/12/13 08:25:40;;;;;;;;;;;23.70;26.60;;;;;;5157474;27;19919;-73
2022/12/13 08:28:05;;;;;;;;;;;24.20;26.30;;;;;;5140769;27;19923;-69
2022/12/13 08:30:31;;;;;;;;;;;24.60;26.10;;;;;;5156460;27;20335;-70
2022/12/13 08:32:57;;;;;;;;;;;25.00;25.80;;;;;;5154935;27;19919;-68
2022/12/13 08:35:25;;;;;;;;;;;25.30;25.60;;;;;;5137041;27;19922;-73
2022/12/13 08:37:51;;;;;;;;;;;25.60;25.50;;;;;;5139396;27;19929;-71
2022/12/13 08:40:16;;;;;;;;;;;25.90;25.30;;;;;;5137568;27;19923;-71
2022/12/13 08:42:42;;;;;;;;;;;26.00;25.20;;;;;;5143340;27;19930;-70
2022/12/13 08:45:08;;;;;;;;;;;26.10;25.10;;;;;;5158724;27;19926;-71
2022/12/13 08:47:33;;;;;;;;;;;26.20;25.10;;;;;;5160450;27;19995;-71
2022/12/13 08:49:59;;;;;;;;;;;26.20;25.20;;;;;;5150769;27;19919;-72
2022/12/13 08:52:24;;;;;;;;;;;26.10;25.20;;;;;;5160440;27;20691;-73
2022/12/13 08:54:50;;;;;;;;;;;26.00;25.30;;;;;;5137246;27;20005;-74
2022/12/13 08:57:16;;;;;;;;;;;25.90;25.30;;;;;;5141280;27;20387;-69
2022/12/13 08:59:41;;;;;;;;;;;25.70;25.40;;;;;;5135801;27;19922;-70
2022/12/13 09:02:10;;;;;;;;;;;25.50;25.40;;;;;;5137893;27;19931;-69
2022/12/13 09:04:36;;;;;;;;;;;25.10;25.30;;;;;;5145405;27;19948;-67
2022/12/13 09:07:01;;;;;;;;;;;24.50;25.70;;;;;;5159336;27;19919;-69
2022/12/13 09:09:27;;;;;;;;;;;23.90;26.20;;;;;;5136461;27;19920;-66
2022/12/13 09:11:53;;;;;;;;;;;23.50;26.70;;;;;;5131536;27;20302;-68
2022/12/13 09:14:18;;;;;;;;;;;23.20;27.10;;;;;;5133080;27;19974;-71
2022/12/13 09:16:44;;;;;;;;;;;23.10;27.30;;;;;;5152445;27;19930;-72
2022/12/13 09:19:10;;;;;;;;;;;23.40;27.40;;;;;;5128211;27;19931;-69
2022/12/13 09:21:35;;;;;;;;;;;23.90;27.00;;;;;;5129381;27;19950;-71
2022/12/13 09:24:01;;;;;;;;;;;24.50;26.60;;;;;;5136158;27;19926;-69
2022/12/13 09:26:26;;;;;;;;;;;24.90;26.20;;;;;;5134007;27;20359;-66
2022/12/13 09:28:52;;;;;;;;;;;25.10;25.90;;;;;;5133615;27;20302;-72
2022/12/13 09:31:18;;;;;;;;;;;25.10;25.70;;;;;;5130616;27;20334;-72
2022/12/13 09:33:44;;;;;;;;;;;25.10;25.70;;;;;;5135066;27;20679;-72
2022/12/13 09:36:11;;;;;;;;;;;25.30;25.70;;;;;;5134119;27;19930;-72
2022/12/13 09:38:37;;;;;;;;;;;25.30;25.60;;;;;;5131487;27;20491;-73
2022/12/13 09:41:24;;;;;;;;;;;25.50;25.50;;;;;;5131483;27;19919;-72
2022/12/13 09:43:54;;;;;;;;;;;25.50;25.40;;;;;;5128519;27;19931;-71
2022/12/13 09:46:21;;;;;;;;;;;25.30;25.60;;;;;;5132582;27;19929;-70
2022/12/13 09:48:48;;;;;;;;;;;25.10;26.30;;;;;;5127695;27;19938;-72
2022/12/13 09:51:13;;;;;;;;;;;24.60;26.00;;;;;;5126561;27;20446;-72
2022/12/13 09:53:39;;;;;;;;;;;24.10;26.40;;;;;;5134010;27;20015;-71
2022/12/13 09:56:09;;;;;;;;;;;23.90;26.90;;;;;;5128373;27;19965;-69
2022/12/13 09:58:36;;;;;;;;;;;23.60;27.10;;;;;;5134635;27;19969;-73
2022/12/13 10:01:03;;;;;;;;;;;23.50;27.40;;;;;;5134310;27;19967;-69
2022/12/13 10:03:29;;;;;;;;;;;23.40;27.60;;;;;;5133704;27;19927;-70
2022/12/13 10:08:39;;;;;;;;;;;23.00;28.00;;;;;;5057220;28;21460;-72
2022/12/13 10:11:05;;;;;;;;;;;22.80;28.20;;;;;;5042421;28;19932;-71
2022/12/13 10:16:31;;;;;;;;;;;22.00;28.70;;;;;;5071152;27;20339;-69
2022/12/13 10:18:57;;;;;;;;;;;21.60;29.20;;;;;;5071537;28;19977;-68
2022/12/13 10:21:34;;;;;;;;;;;21.20;29.70;;;;;;5071675;28;19929;-67
2022/12/13 10:24:10;;;;;;;;;;;20.80;30.30;;;;;;5107687;28;19959;-69
2022/12/13 10:26:36;;;;;;;;;;;20.50;31.10;;;;;;5103549;28;19942;-69
2022/12/13 10:29:03;;;;;;;;;;;20.10;31.80;;;;;;5076197;28;19928;-69
2022/12/13 10:31:29;;;;;;;;;;;19.90;32.80;;;;;;5089617;28;20056;-68
2022/12/13 10:33:55;;;;;;;;;;;19.80;32.30;;;;;;5073471;28;20503;-68
2022/12/13 10:36:38;;;;;;;;;;;20.10;32.10;;;;;;5085805;28;19929;-70
2022/12/13 10:39:04;;;;;;;;;;;20.60;31.60;;;;;;5104094;28;19986;-72
2022/12/13 10:41:31;;;;;;;;;;;21.10;30.80;;;;;;5067289;28;19963;-77
2022/12/13 10:44:17;;;;;;;;;;;21.70;30.10;;;;;;5074022;28;19928;-72
2022/12/13 10:46:51;;;;;;;;;;;22.40;29.50;;;;;;5071711;28;20444;-71
2022/12/13 10:49:20;;;;;;;;;;;23.20;28.80;;;;;;5071675;28;20352;-68
2022/12/13 10:51:46;;;;;;;;;;;23.80;28.20;;;;;;5088763;28;19985;-75
2022/12/13 10:54:14;;;;;;;;;;;24.30;27.70;;;;;;5071444;28;19928;-71
2022/12/13 10:56:46;;;;;;;;;;;24.70;27.50;;;;;;5066978;28;20423;-68
2022/12/13 10:59:32;;;;;;;;;;;24.80;27.10;;;;;;5074873;28;20007;-72
2022/12/13 11:01:58;;;;;;;;;;;24.40;27.00;;;;;;5087090;28;19935;-72
2022/12/13 11:04:28;;;;;;;;;;;24.10;27.30;;;;;;5072005;28;19932;-73
2022/12/13 11:06:55;;;;;;;;;;;23.90;27.60;;;;;;5071484;28;19958;-74
2022/12/13 11:12:10;;;;;;;;;;;23.50;27.90;;;;;;5087596;27;19927;-70
2022/12/13 11:14:38;;;;;;;;;;;23.10;27.90;;;;;;5071418;28;19946;-70
2022/12/13 11:17:06;;;;;;;;;;;22.40;28.50;;;;;;5071385;28;19928;-72
2022/12/13 11:19:36;;;;;;;;;;;21.90;29.20;;;;;;5075525;28;19920;-71
2022/12/13 11:22:02;;;;;;;;;;;21.50;29.80;;;;;;5075273;28;20287;-70
2022/12/13 11:24:32;;;;;;;;;;;21.20;30.20;;;;;;5077348;28;19932;-70
2022/12/13 11:27:02;;;;;;;;;;;21.20;30.60;;;;;;5078846;28;19921;-63
2022/12/13 11:29:36;;;;;;;;;;;21.10;30.70;;;;;;5079061;28;20046;-71
2022/12/13 11:32:15;;;;;;;;;;;21.10;30.50;;;;;;5071227;28;20031;-71
2022/12/13 11:35:01;;;;;;;;;;;21.30;30.30;;;;;;5073931;28;19936;-70
2022/12/13 11:40:14;;;;;;;;;;;22.10;29.30;;;;;;5077293;27;1859300;-71
2022/12/13 11:45:36;;;;;;;;;;;22.50;28.60;;;;;;5088374;27;1867721;-66
2022/12/13 11:48:15;;;;;;;;;;;22.90;28.60;;;;;;5131859;27;19922;-69
2022/12/13 11:50:49;;;;;;;;;;;23.20;28.40;;;;;;5155352;27;19923;-68
2022/12/13 11:56:03;;;;;;;;;;;23.80;27.80;;;;;;5079201;27;19916;-68
2022/12/13 11:58:32;;;;;;;;;;;23.90;27.80;;;;;;5077803;28;20668;-69
2022/12/13 12:01:01;;;;;;;;;;;23.90;27.80;;;;;;5105584;28;19928;-68
2022/12/13 12:03:47;;;;;;;;;;;23.90;27.80;;;;;;5073926;28;19928;-66
2022/12/13 12:06:16;;;;;;;;;;;23.90;28.00;;;;;;5087968;28;19931;-69
2022/12/13 12:14:09;;;;;;;;;;;23.10;28.60;;;;;;5084259;27;19948;-67
2022/12/13 12:16:40;;;;;;;;;;;22.90;28.80;;;;;;5067256;28;19924;-69
2022/12/13 12:19:14;;;;;;;;;;;22.60;29.00;;;;;;5066298;28;20536;-69
2022/12/13 12:21:59;;;;;;;;;;;22.40;29.20;;;;;;5104562;28;20013;-69
2022/12/13 12:24:45;;;;;;;;;;;22.30;29.50;;;;;;5073610;28;19932;-71
2022/12/13 12:27:17;;;;;;;;;;;22.10;29.80;;;;;;5073725;28;19935;-71
2022/12/13 12:30:02;;;;;;;;;;;21.90;30.00;;;;;;5070532;28;19928;-70
2022/12/13 12:35:25;;;;;;;;;;;21.80;30.40;;;;;;5091532;27;1911137;-71
2022/12/13 12:37:56;;;;;;;;;;;21.90;30.40;;;;;;5136592;27;19927;-71
2022/12/13 12:40:41;;;;;;;;;;;22.10;30.20;;;;;;5134164;27;19923;-69
2022/12/13 12:46:07;;;;;;;;;;;21.90;30.50;;;;;;5084044;27;19917;-69
2022/12/13 12:59:38;;;;;;;;;;;22.30;30.50;;;;;;5069968;27;19920;-71
2022/12/13 13:02:15;;;;;;;;;;;22.50;30.40;;;;;;5045174;28;19925;-72
2022/12/13 13:04:45;;;;;;;;;;;22.60;30.40;;;;;;5042350;28;19936;-66
2022/12/13 13:07:15;;;;;;;;;;;22.60;30.40;;;;;;5042611;28;20728;-65
2022/12/13 13:09:41;;;;;;;;;;;22.70;30.40;;;;;;5043986;28;20066;-69
2022/12/13 13:12:08;;;;;;;;;;;22.70;30.50;;;;;;5074663;28;19925;-70
2022/12/13 13:14:36;;;;;;;;;;;22.80;30.60;;;;;;5044402;28;19931;-67
2022/12/13 13:17:22;;;;;;;;;;;22.80;30.50;;;;;;5041076;28;20006;-70
2022/12/13 13:19:48;;;;;;;;;;;22.90;30.70;;;;;;5044649;28;19967;-69
2022/12/13 13:22:30;;;;;;;;;;;23.00;30.70;;;;;;5041624;28;19928;-68
2022/12/13 13:25:15;;;;;;;;;;;23.20;30.60;;;;;;5078085;28;19924;-71
2022/12/13 13:27:42;;;;;;;;;;;23.30;30.50;;;;;;5079330;28;19924;-70
2022/12/13 13:30:15;;;;;;;;;;;23.40;30.50;;;;;;5052318;28;19996;-72
2022/12/13 13:32:40;;;;;;;;;;;23.30;30.60;;;;;;5047774;28;20015;-73
2022/12/13 13:35:26;;;;;;;;;;;23.20;30.60;;;;;;5051931;28;19925;-68
2022/12/13 13:37:51;;;;;;;;;;;23.10;30.80;;;;;;5052042;28;19929;-75
2022/12/13 13:40:33;;;;;;;;;;;22.90;31.00;;;;;;5049761;28;20518;-73
2022/12/13 13:45:57;;;;;;;;;;;22.50;31.60;;;;;;5086976;27;19920;-71
2022/12/13 13:53:54;;;;;;;;;;;21.90;32.80;;;;;;5063901;28;19924;-72
2022/12/13 13:56:40;;;;;;;;;;;21.60;33.30;;;;;;5031377;28;19937;-75
2022/12/13 13:59:26;;;;;;;;;;;21.50;33.50;;;;;;5030479;28;19924;-72
2022/12/13 14:04:51;;;;;;;;;;;21.70;33.50;;;;;;5085083;27;1861072;-62
2022/12/13 14:10:21;;;;;;;;;;;21.40;33.90;;;;;;5090383;27;19924;-69
2022/12/13 14:13:06;;;;;;;;;;;21.50;33.60;;;;;;5070182;28;20394;-74
2022/12/13 14:15:52;;;;;;;;;;;21.60;33.00;;;;;;5067161;28;19932;-72
2022/12/13 14:18:37;;;;;;;;;;;21.90;32.60;;;;;;5079998;28;19928;-63
2022/12/13 14:23:53;;;;;;;;;;;22.50;31.70;;;;;;5079170;28;20521;-74
2022/12/13 14:26:38;;;;;;;;;;;22.80;31.10;;;;;;5078052;28;20378;-73
2022/12/13 14:29:10;;;;;;;;;;;23.00;30.60;;;;;;5079059;28;19935;-73
2022/12/13 14:31:40;;;;;;;;;;;23.10;30.30;;;;;;5078925;28;19928;-71
2022/12/13 14:34:06;;;;;;;;;;;23.30;30.00;;;;;;5081170;28;19967;-62
2022/12/13 14:36:35;;;;;;;;;;;23.30;29.90;;;;;;5079936;28;19925;-73
2022/12/13 14:39:03;;;;;;;;;;;23.30;29.80;;;;;;5086221;28;20355;-73
2022/12/13 14:41:29;;;;;;;;;;;23.20;29.70;;;;;;5080062;28;19932;-73
2022/12/13 14:43:55;;;;;;;;;;;23.10;29.70;;;;;;5079106;28;19929;-62
2022/12/13 14:46:21;;;;;;;;;;;23.00;29.70;;;;;;5081487;28;19924;-69
2022/12/13 14:48:48;;;;;;;;;;;22.90;29.70;;;;;;5082056;28;19927;-68
2022/12/13 14:54:15;;;;;;;;;;;22.90;30.40;;;;;;5101483;27;19923;-67
2022/12/13 14:56:56;;;;;;;;;;;23.00;29.90;;;;;;5099950;28;19924;-67
2022/12/13 14:59:22;;;;;;;;;;;23.20;29.80;;;;;;5101018;28;19927;-64
2022/12/13 15:01:57;;;;;;;;;;;22.90;29.60;;;;;;5100332;28;19920;-67
2022/12/13 15:04:28;;;;;;;;;;;22.60;29.80;;;;;;5131107;27;19928;-64
2022/12/13 15:06:57;;;;;;;;;;;22.20;30.00;;;;;;5101864;28;19920;-68
2022/12/13 15:09:23;;;;;;;;;;;22.10;30.20;;;;;;5090302;28;19962;-68
2022/12/13 15:11:50;;;;;;;;;;;21.90;30.60;;;;;;5092877;28;20457;-65
2022/12/13 15:14:18;;;;;;;;;;;21.80;30.70;;;;;;5097290;28;19974;-67
2022/12/13 15:16:48;;;;;;;;;;;21.60;30.80;;;;;;5105100;28;19920;-65
2022/12/13 15:19:16;;;;;;;;;;;21.60;30.90;;;;;;5102146;28;20595;-70
2022/12/13 15:21:52;;;;;;;;;;;21.60;30.90;;;;;;5101375;28;19923;-70
2022/12/13 15:24:18;;;;;;;;;;;21.50;30.60;;;;;;5109478;28;20002;-69
2022/12/13 15:26:46;;;;;;;;;;;21.50;30.60;;;;;;5105559;28;19927;-68
2022/12/13 15:29:22;;;;;;;;;;;21.60;30.50;;;;;;5100568;28;19927;-69
2022/12/13 15:31:47;;;;;;;;;;;21.60;31.10;;;;;;5098921;28;19920;-71
2022/12/13 15:39:47;;;;;;;;;;;21.90;30.00;;;;;;5114523;27;1861583;-68
2022/12/13 15:42:21;;;;;;;;;;;21.80;29.90;;;;;;5160193;27;20018;-68
2022/12/13 15:44:52;;;;;;;;;;;21.90;29.90;;;;;;5161229;27;19971;-70
2022/12/13 15:47:19;;;;;;;;;;;21.80;29.80;;;;;;5150051;27;20019;-68